This is the latest recevied weather packets stored in our database for station/object JS2QVS-13. If no packets are shown the sender has not sent any weather packets the latest 10 day(s).
| Time | Temp. | Humidity | Pressure | Rain* | Wind** | Luminosity | Snow |
|---|---|---|---|---|---|---|---|
| 1777930061 | 13.89° C | 57% | 1014.2 hPa | 0 mm | - | - | - |
| 1777929461 | 13.89° C | 58% | 1014.1 hPa | 0 mm | - | - | - |
| 1777928263 | 13.33° C | 60% | 1013.7 hPa | 0 mm | - | - | - |
| 1777927663 | 12.78° C | 59% | 1013.3 hPa | 0 mm | - | - | - |
| 1777927063 | 13.33° C | 61% | 1013.3 hPa | 0 mm | - | - | - |
| 1777926463 | 13.33° C | 61% | 1013.1 hPa | 0 mm | - | - | - |
| 1777925862 | 13.33° C | 60% | 1012.6 hPa | 0 mm | - | - | - |
| 1777925262 | 13.33° C | 59% | 1012.4 hPa | 0 mm | - | - | - |
| 1777924662 | 13.33° C | 60% | 1012 hPa | 0 mm | - | - | - |
| 1777924062 | 13.33° C | 59% | 1011.7 hPa | 0 mm | - | - | - |
| 1777923462 | 13.33° C | 59% | 1011.5 hPa | 0 mm | - | - | - |
| 1777922862 | 13.33° C | 60% | 1011.4 hPa | 0 mm | - | - | - |
| 1777922262 | 13.33° C | 60% | 1011.2 hPa | 0 mm | - | - | - |
| 1777921662 | 13.33° C | 61% | 1011.1 hPa | 0 mm | - | - | - |
| 1777921062 | 13.33° C | 59% | 1011.1 hPa | 0 mm | - | - | - |
| 1777920461 | 13.89° C | 59% | 1011.1 hPa | 0 mm | - | - | - |
| 1777919861 | 13.89° C | 59% | 1010.8 hPa | 0 mm | - | - | - |
| 1777919261 | 13.89° C | 59% | 1010.7 hPa | 0 mm | - | - | - |
| 1777918663 | 13.89° C | 60% | 1010.6 hPa | 0 mm | - | - | - |
| 1777918063 | 13.89° C | 59% | 1010.4 hPa | 0 mm | - | - | - |
| 1777917463 | 13.89° C | 58% | 1010.1 hPa | 0 mm | - | - | - |
| 1777916263 | 14.44° C | 59% | 1010.2 hPa | 0 mm | - | - | - |
| 1777915662 | 14.44° C | 58% | 1010.3 hPa | 0 mm | - | - | - |
| 1777915062 | 14.44° C | 57% | 1010 hPa | 0 mm | - | - | - |
| 1777914462 | 15° C | 57% | 1009.8 hPa | 0 mm | - | - | - |
* Rain latest hour (hover to see other rain measurements)
** Current wind speed in m/s (hover to see current wind gust speed)